createdAt,value
2017-07-12T16:44:20.210Z,5.30
2017-07-12T16:46:48.835Z,5.40
2017-07-12T16:49:17.263Z,5.70
2017-07-12T16:51:44.877Z,4.53
2017-07-12T16:54:12.520Z,5.20
2017-07-12T16:56:40.187Z,5.27
2017-07-12T16:59:08.097Z,5.33
2017-07-12T17:01:36.353Z,4.47
2017-07-12T17:04:04.189Z,4.90
2017-07-12T17:06:32.216Z,6.73
2017-07-12T17:08:59.907Z,5.90
2017-07-12T17:11:27.601Z,4.80
2017-07-12T17:13:55.193Z,7.10
2017-07-12T17:16:22.848Z,5.87
2017-07-12T17:18:50.612Z,5.80
2017-07-12T17:21:18.638Z,5.57
2017-07-12T17:23:47.975Z,5.53
2017-07-12T17:26:15.558Z,7.17
2017-07-12T17:28:43.315Z,6.37
2017-07-12T17:31:10.875Z,5.43
2017-07-12T17:33:38.553Z,8.73
2017-07-12T17:36:07.108Z,6.27
2017-07-12T17:38:35.627Z,7.73
2017-07-12T17:41:04.773Z,6.03
2017-07-12T17:43:33.170Z,7.77
2017-07-12T17:46:00.913Z,7.17
2017-07-12T17:48:28.514Z,5.93
2017-07-12T17:50:56.090Z,5.90
2017-07-12T17:53:23.836Z,6.40
2017-07-12T17:55:51.441Z,6.67
2017-07-12T17:58:19.005Z,6.00
2017-07-12T18:00:46.676Z,6.07
2017-07-12T18:03:14.334Z,7.03
2017-07-12T18:05:41.907Z,8.03
2017-07-12T18:08:09.488Z,7.27
2017-07-12T18:10:37.081Z,5.87
2017-07-12T18:13:04.682Z,7.07
2017-07-12T18:15:32.274Z,7.20
2017-07-12T18:17:59.846Z,7.40
2017-07-12T18:20:27.476Z,7.20
2017-07-12T18:22:55.159Z,7.53
2017-07-12T18:25:22.779Z,7.67
2017-07-12T18:27:50.378Z,8.77
2017-07-12T18:30:18.142Z,6.70
2017-07-12T18:32:45.758Z,5.73
2017-07-12T18:35:13.361Z,6.70
2017-07-12T18:37:41.006Z,7.60
2017-07-12T18:40:08.640Z,6.90
2017-07-12T18:42:36.375Z,7.57
2017-07-12T18:45:03.980Z,8.00
2017-07-12T18:47:32.054Z,7.40
2017-07-12T18:50:00.348Z,7.70
2017-07-12T18:52:28.614Z,6.30
2017-07-12T18:54:56.276Z,7.87
2017-07-12T18:57:23.986Z,8.82
2017-07-12T18:59:51.659Z,13.50
2017-07-12T19:02:19.384Z,9.80
2017-07-12T19:04:48.296Z,9.50
2017-07-12T19:07:15.922Z,9.93
2017-07-12T19:09:44.031Z,10.60
2017-07-12T19:12:11.664Z,10.33
2017-07-12T19:14:39.292Z,12.20
2017-07-12T19:17:19.154Z,13.70
2017-07-12T19:19:46.921Z,13.03
2017-07-12T19:22:14.598Z,11.27
2017-07-12T19:24:42.782Z,10.30
2017-07-12T19:27:11.242Z,9.50
2017-07-12T19:33:55.815Z,9.30
2017-07-12T19:43:05.006Z,9.60
2017-07-12T19:45:32.615Z,9.30
2017-07-12T19:48:01.137Z,11.10
2017-07-12T19:50:28.803Z,12.40
2017-07-12T19:52:56.510Z,10.40
2017-07-12T19:55:24.747Z,11.40
2017-07-12T19:57:52.414Z,10.40
2017-07-12T20:00:20.938Z,10.83
2017-07-12T20:02:49.279Z,11.03
2017-07-12T20:05:17.167Z,10.67
2017-07-12T20:07:44.849Z,10.40
2017-07-12T20:10:13.304Z,11.40
2017-07-12T20:12:41.630Z,11.73
2017-07-12T20:15:09.311Z,10.40
2017-07-12T20:17:36.986Z,11.27
2017-07-12T20:20:05.446Z,10.37
2017-07-12T20:22:33.846Z,11.40
2017-07-12T20:25:01.744Z,12.13
2017-07-12T20:27:32.562Z,11.50
2017-07-12T20:30:02.170Z,15.13
2017-07-12T20:32:29.944Z,11.70
2017-07-12T20:34:57.623Z,11.40
2017-07-12T20:37:25.296Z,10.87
2017-07-12T20:40:06.615Z,11.33
2017-07-12T20:42:34.296Z,11.47
2017-07-12T20:45:02.010Z,12.07
2017-07-12T20:47:32.360Z,13.23
2017-07-12T20:50:01.331Z,12.20
2017-07-12T20:52:33.089Z,13.87
2017-07-12T20:57:42.303Z,14.20
2017-07-12T21:00:11.546Z,13.37
2017-07-12T21:02:47.402Z,13.60
2017-07-12T21:05:16.143Z,15.37
2017-07-12T21:07:45.123Z,14.30
2017-07-12T21:10:14.807Z,13.53
2017-07-12T21:12:48.441Z,12.40
2017-07-12T21:15:20.030Z,11.00
2017-07-12T21:17:51.945Z,12.10
2017-07-12T21:20:28.564Z,12.83
2017-07-12T21:22:56.254Z,13.63
2017-07-12T21:25:28.604Z,12.47
2017-07-12T21:30:52.774Z,13.87
2017-07-12T21:33:24.703Z,11.97
2017-07-12T21:36:06.221Z,10.87
2017-07-12T21:38:35.263Z,11.90
2017-07-12T21:41:05.087Z,11.63
2017-07-12T21:43:37.629Z,11.40
2017-07-12T21:46:18.773Z,12.57
2017-07-12T21:48:57.537Z,12.00
2017-07-12T21:51:25.366Z,12.43
2017-07-12T21:54:14.251Z,12.20
2017-07-12T21:57:04.942Z,12.53
2017-07-12T21:59:52.838Z,12.67
2017-07-12T22:02:40.862Z,7.90
2017-07-12T22:05:36.293Z,6.50
2017-07-12T22:08:25.451Z,7.27
2017-07-12T22:11:20.514Z,6.40
2017-07-12T22:14:07.840Z,7.27
2017-07-12T22:17:02.943Z,6.10
2017-07-12T22:19:50.893Z,6.43
2017-07-12T22:25:33.496Z,6.47
2017-07-12T22:28:22.690Z,6.20
2017-07-12T22:31:10.300Z,6.40
2017-07-12T22:33:55.599Z,6.80
2017-07-12T22:36:40.431Z,6.40
2017-07-12T22:39:13.611Z,6.07
2017-07-12T22:41:47.650Z,6.40
2017-07-12T22:44:15.569Z,7.20
2017-07-12T22:46:43.685Z,6.40
2017-07-12T22:49:11.671Z,5.80
2017-07-12T22:51:39.441Z,6.43
2017-07-12T22:54:07.251Z,6.10
2017-07-12T22:56:34.915Z,5.90
2017-07-12T22:59:02.895Z,5.40
2017-07-12T23:01:31.134Z,6.33
2017-07-12T23:03:58.724Z,6.70
2017-07-12T23:06:26.421Z,6.60
2017-07-12T23:08:54.929Z,6.00
2017-07-12T23:11:22.966Z,6.03
2017-07-12T23:13:50.723Z,6.53
2017-07-12T23:26:40.761Z,6.47
2017-07-12T23:29:09.277Z,6.53
2017-07-12T23:31:36.973Z,5.80
2017-07-12T23:34:04.688Z,7.17
2017-07-12T23:36:33.223Z,6.73
2017-07-12T23:39:00.838Z,6.10
2017-07-12T23:41:28.469Z,6.23
2017-07-12T23:44:08.708Z,6.17
2017-07-12T23:46:36.528Z,6.23
2017-07-12T23:49:05.432Z,6.03
2017-07-12T23:51:33.117Z,6.33
2017-07-12T23:54:00.950Z,6.23
2017-07-12T23:56:29.972Z,6.03
2017-07-12T23:58:57.954Z,6.50
